Time;durP1;ratioP1;P1;durP2;ratioP2;P2;SDS_P1;SDS_P2;PMS_P1;PMS_P2;Temp;Humidity;BMP_temperature;BMP_pressure;BME280_temperature;BME280_humidity;BME280_pressure;Samples;Min_cycle;Max_cycle;Signal;HPM_P1;HPM_P2
2022/10/29 00:01:43;;;;;;;13.52;5.28;;;18.70;99.90;;;;;;5058604;28;20246;-82
2022/10/29 00:04:16;;;;;;;20.67;5.50;;;18.60;99.90;;;;;;5058583;28;20240;-82
2022/10/29 00:06:42;;;;;;;16.77;5.10;;;18.60;99.90;;;;;;5056680;28;20659;-80
2022/10/29 00:09:09;;;;;;;16.40;5.55;;;18.50;99.90;;;;;;5057013;28;20220;-82
2022/10/29 00:11:35;;;;;;;13.25;5.28;;;18.40;99.90;;;;;;5058420;28;20203;-84
2022/10/29 00:14:01;;;;;;;13.30;5.43;;;18.50;99.90;;;;;;5058719;28;20174;-80
2022/10/29 00:16:35;;;;;;;17.35;5.85;;;18.40;99.90;;;;;;5058317;28;20202;-84
2022/10/29 00:19:01;;;;;;;9.48;5.80;;;18.40;99.90;;;;;;5057337;28;20181;-83
2022/10/29 00:21:26;;;;;;;15.45;6.03;;;18.50;99.90;;;;;;5057223;28;20254;-82
2022/10/29 00:23:52;;;;;;;13.82;6.65;;;18.50;99.90;;;;;;5058526;28;20651;-83
2022/10/29 00:26:20;;;;;;;14.23;6.03;;;18.60;99.90;;;;;;5058268;28;20257;-83
2022/10/29 00:28:46;;;;;;;10.90;5.82;;;18.60;99.90;;;;;;5058368;28;20250;-83
2022/10/29 00:31:15;;;;;;;12.63;6.15;;;18.30;99.90;;;;;;5058462;28;20301;-83
2022/10/29 00:33:40;;;;;;;7.05;5.38;;;18.50;99.90;;;;;;5056854;28;20159;-83
2022/10/29 00:36:09;;;;;;;23.08;6.43;;;18.40;99.90;;;;;;5057117;28;20232;-83
2022/10/29 00:38:35;;;;;;;15.88;6.15;;;18.30;99.90;;;;;;5073775;28;20167;-83
2022/10/29 00:41:02;;;;;;;13.98;5.00;;;18.20;99.90;;;;;;5058521;28;20547;-82
2022/10/29 00:43:28;;;;;;;19.35;6.35;;;18.10;99.90;;;;;;5057085;28;20567;-82
2022/10/29 00:46:05;;;;;;;13.77;6.20;;;18.30;99.90;;;;;;5057004;28;20167;-83
2022/10/29 00:48:34;;;;;;;9.88;5.85;;;18.20;99.90;;;;;;5058195;28;20453;-82
2022/10/29 00:51:04;;;;;;;14.75;6.22;;;18.20;99.90;;;;;;5056813;28;20199;-82
2022/10/29 00:53:34;;;;;;;10.88;5.38;;;18.20;99.90;;;;;;5057181;28;20170;-82
2022/10/29 00:56:01;;;;;;;15.32;5.80;;;18.10;99.90;;;;;;5058257;28;20217;-82
2022/10/29 00:58:27;;;;;;;10.52;5.10;;;17.90;99.90;;;;;;5055645;28;20278;-82
2022/10/29 01:00:53;;;;;;;13.90;5.25;;;17.80;99.90;;;;;;5052884;28;20191;-82
2022/10/29 01:03:19;;;;;;;20.83;5.97;;;17.80;99.90;;;;;;5055269;28;20163;-82
2022/10/29 01:05:47;;;;;;;11.02;5.47;;;17.80;99.90;;;;;;5056398;28;20163;-83
2022/10/29 01:08:14;;;;;;;13.95;5.63;;;18.00;99.90;;;;;;5055771;28;20726;-82
2022/10/29 01:11:14;;;;;;;10.45;5.05;;;18.00;99.90;;;;;;5054732;28;20584;-84
2022/10/29 01:13:55;;;;;;;12.07;5.57;;;18.00;99.90;;;;;;5049324;28;20210;-82
2022/10/29 01:16:45;;;;;;;12.23;6.70;;;18.10;99.90;;;;;;5055325;28;20262;-83
2022/10/29 01:19:24;;;;;;;21.75;5.82;;;18.10;99.90;;;;;;5054590;28;20632;-82
2022/10/29 01:22:20;;;;;;;10.05;5.50;;;18.00;99.90;;;;;;5053305;28;20539;-82
2022/10/29 01:24:45;;;;;;;16.10;5.85;;;18.00;99.90;;;;;;5049386;28;20238;-82
2022/10/29 01:27:35;;;;;;;8.25;5.15;;;17.90;99.90;;;;;;5057413;28;20673;-82
2022/10/29 01:30:19;;;;;;;11.25;5.65;;;18.00;99.90;;;;;;5054495;28;20175;-82
2022/10/29 01:33:10;;;;;;;14.20;5.75;;;18.00;99.90;;;;;;5054002;28;20194;-82
2022/10/29 01:35:44;;;;;;;12.02;5.72;;;17.80;99.90;;;;;;5053114;28;20179;-82
2022/10/29 01:38:22;;;;;;;15.40;5.28;;;17.80;99.90;;;;;;5053097;28;20187;-82
2022/10/29 01:41:05;;;;;;;13.88;6.05;;;17.90;99.90;;;;;;5052906;28;20171;-83
2022/10/29 01:43:34;;;;;;;13.07;5.82;;;17.90;99.90;;;;;;5054257;28;20241;-83
2022/10/29 01:46:03;;;;;;;19.55;6.95;;;17.80;99.90;;;;;;5052829;28;20221;-82
2022/10/29 01:48:33;;;;;;;11.40;5.88;;;17.80;99.90;;;;;;5052914;28;20191;-82
2022/10/29 01:51:03;;;;;;;13.20;6.28;;;17.90;99.90;;;;;;5053710;28;20209;-82
2022/10/29 01:53:33;;;;;;;19.63;6.68;;;17.80;99.90;;;;;;5053540;28;20221;-82
2022/10/29 01:56:00;;;;;;;18.08;7.07;;;17.90;99.90;;;;;;5055933;28;20171;-82
2022/10/29 01:58:26;;;;;;;22.33;6.20;;;17.90;99.90;;;;;;5058066;28;20187;-83
2022/10/29 02:01:20;;;;;;;11.00;5.88;;;17.80;99.90;;;;;;5062375;28;20258;-82
2022/10/29 02:04:00;;;;;;;14.77;6.78;;;17.70;99.90;;;;;;5057800;28;21027;-82
2022/10/29 02:06:58;;;;;;;18.63;7.47;;;17.70;99.90;;;;;;5056828;28;20265;-82
2022/10/29 02:09:29;;;;;;;18.13;6.13;;;17.80;99.90;;;;;;5054913;28;20167;-80
2022/10/29 02:12:20;;;;;;;14.52;6.03;;;17.70;99.90;;;;;;5065222;28;20207;-83
2022/10/29 02:14:59;;;;;;;18.20;6.60;;;17.40;99.90;;;;;;5061473;28;20164;-83
2022/10/29 02:17:25;;;;;;;10.52;6.53;;;17.40;99.90;;;;;;5052567;28;20253;-81
2022/10/29 02:19:50;;;;;;;15.00;5.90;;;17.30;99.90;;;;;;5052319;28;20645;-81
2022/10/29 02:22:16;;;;;;;17.20;7.07;;;17.40;99.90;;;;;;5052514;28;20256;-81
2022/10/29 02:24:41;;;;;;;15.52;7.07;;;17.40;99.90;;;;;;5051894;28;20179;-81
2022/10/29 02:27:07;;;;;;;23.58;6.72;;;17.40;99.90;;;;;;5051863;28;20656;-82
2022/10/29 02:29:33;;;;;;;16.77;6.10;;;17.60;99.90;;;;;;5052008;28;20163;-81
2022/10/29 02:31:58;;;;;;;15.25;6.03;;;17.80;99.90;;;;;;5053363;28;20710;-81
2022/10/29 02:34:24;;;;;;;18.77;6.32;;;17.80;99.90;;;;;;5053023;28;20167;-82
2022/10/29 02:36:49;;;;;;;15.00;6.40;;;17.90;99.90;;;;;;5052953;28;20191;-81
2022/10/29 02:39:15;;;;;;;15.13;6.07;;;17.80;99.90;;;;;;5053016;28;20637;-81
2022/10/29 02:41:41;;;;;;;12.02;5.95;;;17.70;99.90;;;;;;5052738;28;20191;-81
2022/10/29 02:44:06;;;;;;;10.63;5.47;;;17.70;99.90;;;;;;5051685;28;20179;-82
2022/10/29 02:46:34;;;;;;;10.15;5.50;;;17.70;99.90;;;;;;5051921;28;20190;-81
2022/10/29 02:49:00;;;;;;;12.27;6.55;;;17.80;99.90;;;;;;5053345;28;20189;-81
2022/10/29 02:51:26;;;;;;;10.88;6.25;;;17.90;99.90;;;;;;5052988;28;21038;-82
2022/10/29 02:53:51;;;;;;;12.70;7.03;;;18.00;99.90;;;;;;5052058;28;20163;-81
2022/10/29 02:56:17;;;;;;;14.20;6.95;;;18.00;99.90;;;;;;5051581;28;20652;-82
2022/10/29 02:58:42;;;;;;;25.58;7.15;;;18.00;99.90;;;;;;5051675;28;20209;-82
2022/10/29 03:01:08;;;;;;;10.15;6.38;;;17.80;99.90;;;;;;5051584;28;20541;-81
2022/10/29 03:03:34;;;;;;;10.93;6.05;;;17.90;99.90;;;;;;5051192;28;20179;-81
2022/10/29 03:05:59;;;;;;;20.00;6.75;;;17.90;99.90;;;;;;5051673;28;20167;-81
2022/10/29 03:08:25;;;;;;;16.48;6.57;;;17.90;99.90;;;;;;5052855;28;20278;-81
2022/10/29 03:10:51;;;;;;;22.65;6.40;;;18.00;99.90;;;;;;5051500;28;20865;-82
2022/10/29 03:13:16;;;;;;;22.67;6.95;;;18.00;99.90;;;;;;5051677;28;20175;-81
2022/10/29 03:15:44;;;;;;;15.45;6.90;;;18.10;99.90;;;;;;5052609;28;20167;-82
2022/10/29 03:18:10;;;;;;;19.80;7.18;;;18.10;99.90;;;;;;5051049;28;20186;-81
2022/10/29 03:20:35;;;;;;;13.15;7.43;;;17.90;99.90;;;;;;5050662;28;20167;-81
2022/10/29 03:23:01;;;;;;;17.33;6.70;;;17.90;99.90;;;;;;5050848;28;20179;-82
2022/10/29 03:25:26;;;;;;;21.75;7.15;;;17.90;99.90;;;;;;5051014;28;20183;-82
2022/10/29 03:27:52;;;;;;;18.88;7.25;;;17.70;99.90;;;;;;5050896;28;20671;-82
2022/10/29 03:30:18;;;;;;;15.48;6.60;;;17.80;99.90;;;;;;5050842;28;20227;-82
2022/10/29 03:32:45;;;;;;;14.48;6.40;;;17.80;99.90;;;;;;5052043;28;20178;-82
2022/10/29 03:35:13;;;;;;;10.55;5.53;;;17.90;99.90;;;;;;5052074;28;20170;-81
2022/10/29 03:37:39;;;;;;;12.00;6.38;;;17.90;99.90;;;;;;5050634;28;20241;-81
2022/10/29 03:40:05;;;;;;;25.95;7.30;;;17.90;99.90;;;;;;5052550;28;20698;-82
2022/10/29 03:42:31;;;;;;;27.65;7.95;;;18.00;99.90;;;;;;5052056;28;20333;-82
2022/10/29 03:44:57;;;;;;;16.35;6.53;;;18.00;99.90;;;;;;5050978;28;20266;-82
2022/10/29 03:47:23;;;;;;;16.02;6.90;;;18.00;99.90;;;;;;5051902;28;20296;-81
2022/10/29 03:49:49;;;;;;;19.17;6.65;;;17.80;99.90;;;;;;5050871;28;20636;-81
2022/10/29 03:52:15;;;;;;;18.35;7.05;;;17.60;99.90;;;;;;5051981;28;20207;-81
2022/10/29 03:54:40;;;;;;;15.18;6.25;;;17.60;99.90;;;;;;5050605;28;20253;-82
2022/10/29 03:57:06;;;;;;;21.00;6.60;;;17.50;99.90;;;;;;5051934;28;20231;-82
2022/10/29 03:59:31;;;;;;;19.95;7.03;;;17.40;99.90;;;;;;5051963;28;20623;-82
2022/10/29 04:01:57;;;;;;;15.55;6.95;;;17.40;99.90;;;;;;5051803;28;20221;-82
2022/10/29 04:04:22;;;;;;;16.35;7.65;;;17.30;99.90;;;;;;5051601;28;20182;-82
2022/10/29 04:06:48;;;;;;;16.38;6.78;;;17.40;99.90;;;;;;5050499;28;20229;-82
2022/10/29 04:09:13;;;;;;;23.88;8.15;;;17.60;99.90;;;;;;5051437;28;20692;-81
2022/10/29 04:11:39;;;;;;;13.15;7.00;;;17.50;99.90;;;;;;5051411;28;20605;-81
2022/10/29 04:14:05;;;;;;;17.02;7.55;;;17.50;99.90;;;;;;5051629;28;20174;-81
2022/10/29 04:16:30;;;;;;;26.90;6.68;;;17.60;99.90;;;;;;5051877;28;20236;-81
2022/10/29 04:18:56;;;;;;;15.27;6.85;;;17.60;99.90;;;;;;5050617;28;20507;-81
2022/10/29 04:21:21;;;;;;;21.67;7.03;;;17.70;99.90;;;;;;5050464;28;20214;-81
2022/10/29 04:23:48;;;;;;;24.63;8.02;;;17.80;99.90;;;;;;5050508;28;20621;-81
2022/10/29 04:26:14;;;;;;;23.42;7.35;;;17.70;99.90;;;;;;5050143;28;20163;-81
2022/10/29 04:28:40;;;;;;;18.80;6.38;;;17.70;99.90;;;;;;5050062;28;20226;-81
2022/10/29 04:31:07;;;;;;;14.27;6.97;;;17.60;99.90;;;;;;5050263;28;20283;-81
2022/10/29 04:33:32;;;;;;;16.27;7.40;;;17.60;99.90;;;;;;5052462;28;20170;-82
2022/10/29 04:35:58;;;;;;;14.13;7.03;;;17.60;99.90;;;;;;5054016;28;20175;-81
2022/10/29 04:38:23;;;;;;;14.45;7.22;;;17.90;99.90;;;;;;5053853;28;20241;-83
2022/10/29 04:40:49;;;;;;;18.40;6.13;;;17.90;99.90;;;;;;5055260;28;20172;-81
2022/10/29 04:43:15;;;;;;;9.90;6.53;;;18.00;99.90;;;;;;5055177;28;20167;-82
2022/10/29 04:45:41;;;;;;;16.63;6.43;;;17.90;99.90;;;;;;5053969;28;20178;-82
2022/10/29 04:48:07;;;;;;;17.27;7.32;;;18.00;99.90;;;;;;5064942;28;20187;-82
2022/10/29 04:50:33;;;;;;;28.25;7.45;;;18.00;99.90;;;;;;5068320;28;20171;-82
2022/10/29 04:52:59;;;;;;;12.98;7.35;;;17.90;99.90;;;;;;5065935;28;20175;-83
2022/10/29 04:55:26;;;;;;;19.77;6.90;;;18.00;99.90;;;;;;5075886;28;20147;-82
2022/10/29 04:57:52;;;;;;;17.73;6.15;;;18.00;99.90;;;;;;5078636;28;20533;-83
2022/10/29 05:00:17;;;;;;;14.60;8.00;;;18.00;99.90;;;;;;5078098;28;20648;-83
2022/10/29 05:02:48;;;;;;;15.48;7.57;;;18.00;99.90;;;;;;5067938;28;20175;-82
2022/10/29 05:05:17;;;;;;;20.63;6.88;;;18.00;99.90;;;;;;5054796;28;20179;-82
2022/10/29 05:07:43;;;;;;;14.70;7.63;;;18.00;99.90;;;;;;5054928;28;20187;-83
2022/10/29 05:10:09;;;;;;;10.80;5.65;;;18.10;99.90;;;;;;5053723;28;20159;-82
2022/10/29 05:12:34;;;;;;;12.90;7.13;;;18.10;99.90;;;;;;5055421;28;20215;-82
2022/10/29 05:15:00;;;;;;;21.13;6.82;;;18.00;99.90;;;;;;5053475;28;20208;-82
2022/10/29 05:17:26;;;;;;;18.77;7.22;;;17.90;99.90;;;;;;5055885;28;20304;-82
2022/10/29 05:19:51;;;;;;;11.80;5.47;;;17.90;99.90;;;;;;5067288;28;20163;-82
2022/10/29 05:22:17;;;;;;;14.32;6.90;;;18.00;99.90;;;;;;5063229;28;20171;-82
2022/10/29 05:24:42;;;;;;;9.75;6.20;;;18.00;99.90;;;;;;5059097;28;20254;-82
2022/10/29 05:27:08;;;;;;;18.63;7.35;;;17.90;99.90;;;;;;5058237;28;20192;-81
2022/10/29 05:29:34;;;;;;;14.27;6.80;;;17.90;99.90;;;;;;5056771;28;20163;-82
2022/10/29 05:31:59;;;;;;;16.88;7.47;;;18.00;99.90;;;;;;5054481;28;20563;-81
2022/10/29 05:34:25;;;;;;;7.68;5.93;;;17.90;99.90;;;;;;5053763;28;20175;-82
2022/10/29 05:36:51;;;;;;;12.80;6.85;;;17.90;99.90;;;;;;5055114;28;20191;-83
2022/10/29 05:39:16;;;;;;;25.10;6.32;;;17.90;99.90;;;;;;5054137;28;20175;-82
2022/10/29 05:41:42;;;;;;;25.65;6.88;;;17.90;99.90;;;;;;5055083;28;20270;-83
2022/10/29 05:44:08;;;;;;;17.40;6.78;;;17.90;99.90;;;;;;5053948;28;20195;-83
2022/10/29 05:46:34;;;;;;;11.60;7.25;;;17.90;99.90;;;;;;5052702;28;20191;-82
2022/10/29 05:48:59;;;;;;;28.13;6.90;;;17.90;99.90;;;;;;5052733;28;20258;-82
2022/10/29 05:51:25;;;;;;;12.32;7.05;;;17.70;99.90;;;;;;5052882;28;20211;-82
2022/10/29 05:53:50;;;;;;;18.15;6.80;;;17.80;99.90;;;;;;5053040;28;20171;-81
2022/10/29 05:56:16;;;;;;;48.75;9.50;;;17.80;99.90;;;;;;5053291;28;20660;-82
2022/10/29 05:58:41;;;;;;;33.40;7.47;;;17.70;99.90;;;;;;5052701;28;20607;-81
2022/10/29 06:01:08;;;;;;;32.03;7.10;;;17.70;99.90;;;;;;5053369;28;20890;-81
2022/10/29 06:03:34;;;;;;;39.90;8.77;;;17.70;99.90;;;;;;5052704;28;20223;-82
2022/10/29 06:06:00;;;;;;;30.33;8.85;;;17.70;99.90;;;;;;5054399;28;20210;-82
2022/10/29 06:08:25;;;;;;;23.23;8.32;;;17.70;99.90;;;;;;5056442;28;20195;-82
2022/10/29 06:10:51;;;;;;;13.52;7.22;;;17.70;99.90;;;;;;5053724;28;20290;-83
2022/10/29 06:13:21;;;;;;;22.85;6.78;;;17.60;99.90;;;;;;5054546;28;20706;-82
2022/10/29 06:15:47;;;;;;;11.45;6.68;;;17.50;99.90;;;;;;5053964;28;20170;-80
2022/10/29 06:18:14;;;;;;;10.98;6.78;;;17.60;99.90;;;;;;5053519;28;20187;-81
2022/10/29 06:20:42;;;;;;;16.92;7.00;;;17.60;99.90;;;;;;5053776;28;20176;-84
2022/10/29 06:23:08;;;;;;;15.05;7.03;;;17.70;99.90;;;;;;5052802;28;20596;-83
2022/10/29 06:25:34;;;;;;;22.92;7.80;;;17.60;99.90;;;;;;5053283;28;20255;-82
2022/10/29 06:28:05;;;;;;;13.00;6.57;;;17.40;99.90;;;;;;5052508;28;20258;-82
2022/10/29 06:30:32;;;;;;;15.38;7.43;;;17.40;99.90;;;;;;5051790;28;20629;-83
2022/10/29 06:32:58;;;;;;;17.83;7.20;;;17.30;99.90;;;;;;5052095;28;20221;-83
2022/10/29 06:35:24;;;;;;;21.00;7.25;;;17.30;99.90;;;;;;5053113;28;20168;-82
2022/10/29 06:37:49;;;;;;;21.92;7.82;;;17.40;99.90;;;;;;5051661;28;20202;-83
2022/10/29 06:40:15;;;;;;;18.52;6.80;;;17.50;99.90;;;;;;5053066;28;20185;-83
2022/10/29 06:42:41;;;;;;;21.77;6.18;;;17.50;99.90;;;;;;5053054;28;20547;-83
2022/10/29 06:45:07;;;;;;;15.68;7.60;;;17.50;99.90;;;;;;5051296;28;20513;-83
2022/10/29 06:47:43;;;;;;;24.85;6.68;;;17.60;99.90;;;;;;5052829;28;20564;-84
2022/10/29 06:50:10;;;;;;;13.52;6.80;;;17.50;99.90;;;;;;5051994;28;20186;-83
2022/10/29 06:52:36;;;;;;;17.25;6.30;;;17.60;99.90;;;;;;5051902;28;20229;-82
2022/10/29 06:55:03;;;;;;;18.05;6.18;;;17.70;99.90;;;;;;5053118;28;20163;-82
2022/10/29 06:57:28;;;;;;;18.98;6.25;;;17.60;99.90;;;;;;5050337;28;20187;-83
2022/10/29 06:59:55;;;;;;;19.92;6.10;;;17.70;99.90;;;;;;5053104;28;20221;-82
2022/10/29 07:02:21;;;;;;;35.35;6.57;;;17.70;99.90;;;;;;5053049;28;20156;-83
2022/10/29 07:04:47;;;;;;;19.08;7.03;;;17.70;99.90;;;;;;5051337;28;20187;-82
2022/10/29 07:07:13;;;;;;;16.02;6.40;;;17.80;99.90;;;;;;5052054;28;20653;-82
2022/10/29 07:09:39;;;;;;;14.85;6.82;;;17.90;99.90;;;;;;5051016;28;20198;-82
2022/10/29 07:12:05;;;;;;;13.68;7.05;;;17.90;99.90;;;;;;5052535;28;20210;-93
2022/10/29 07:14:31;;;;;;;14.55;6.45;;;18.00;99.90;;;;;;5051749;28;20182;-82
2022/10/29 07:16:57;;;;;;;15.05;6.68;;;18.10;99.90;;;;;;5051571;28;20195;-92
2022/10/29 07:19:22;;;;;;;10.90;6.38;;;18.10;99.90;;;;;;5051689;23;20230;-78
2022/10/29 07:21:48;;;;;;;14.90;6.85;;;18.10;99.90;;;;;;5030567;28;20183;-78
2022/10/29 07:24:16;;;;;;;29.90;7.05;;;18.10;99.90;;;;;;5032683;28;20163;-82
2022/10/29 07:26:42;;;;;;;15.88;6.88;;;18.10;99.90;;;;;;5032361;28;20191;-79
2022/10/29 07:29:07;;;;;;;16.70;6.35;;;18.20;99.90;;;;;;5032658;28;20294;-83
2022/10/29 07:31:33;;;;;;;12.70;6.60;;;18.20;99.90;;;;;;5031705;28;20728;-81
2022/10/29 07:33:58;;;;;;;25.55;7.88;;;18.30;99.90;;;;;;5032198;28;20168;-88
2022/10/29 07:36:24;;;;;;;15.60;7.13;;;18.30;99.90;;;;;;5033411;28;20634;-81
2022/10/29 07:38:50;;;;;;;11.60;7.18;;;18.30;99.90;;;;;;5018498;28;20179;-87
2022/10/29 07:41:15;;;;;;;21.48;6.45;;;18.40;99.90;;;;;;5014266;28;20673;-83
2022/10/29 07:43:41;;;;;;;14.75;6.55;;;18.50;99.90;;;;;;5013674;28;20168;-89
2022/10/29 07:46:06;;;;;;;17.50;6.40;;;18.70;99.90;;;;;;5014120;28;20160;-87
2022/10/29 07:48:32;;;;;;;23.48;6.38;;;18.80;99.90;;;;;;5013241;28;20200;-89
2022/10/29 07:50:59;;;;;;;13.82;6.00;;;18.90;99.90;;;;;;5013778;28;20311;-86
2022/10/29 07:53:24;;;;;;;19.85;7.30;;;19.00;99.90;;;;;;5013760;28;20171;-84
2022/10/29 07:55:57;;;;;;;14.57;6.85;;;19.10;99.90;;;;;;5013891;28;20631;-83
2022/10/29 07:58:23;;;;;;;13.55;6.90;;;19.10;99.90;;;;;;5012388;28;20192;-88
2022/10/29 08:00:50;;;;;;;26.85;7.00;;;19.20;99.90;;;;;;5013627;28;20168;-84
2022/10/29 08:03:16;;;;;;;17.67;6.60;;;19.20;99.90;;;;;;5013184;28;20303;-89
2022/10/29 08:05:41;;;;;;;12.38;6.20;;;19.20;99.90;;;;;;5012968;28;20188;-80
2022/10/29 08:08:07;;;;;;;23.17;6.65;;;19.30;99.90;;;;;;5013465;28;20701;-87
2022/10/29 08:10:34;;;;;;;8.25;5.32;;;19.40;99.90;;;;;;5016314;28;20176;-84
2022/10/29 08:13:02;;;;;;;20.90;6.50;;;19.50;99.90;;;;;;5017083;28;20639;-82
2022/10/29 08:15:29;;;;;;;16.08;7.03;;;19.60;99.90;;;;;;5016815;28;20172;-87
2022/10/29 08:17:56;;;;;;;31.02;6.95;;;19.70;99.90;;;;;;5016604;28;20582;-81
2022/10/29 08:20:24;;;;;;;23.05;6.72;;;19.80;99.90;;;;;;5016762;28;20161;-81
2022/10/29 08:22:50;;;;;;;11.95;5.95;;;19.90;99.90;;;;;;5019099;28;20164;-84
2022/10/29 08:25:16;;;;;;;10.23;5.38;;;20.10;99.90;;;;;;5015913;28;20173;-80
2022/10/29 08:27:42;;;;;;;9.63;5.57;;;20.00;99.90;;;;;;5016812;28;20184;-88
2022/10/29 08:30:10;;;;;;;24.42;6.13;;;20.00;99.90;;;;;;5015728;28;20164;-83
2022/10/29 08:32:35;;;;;;;12.50;5.78;;;20.10;99.90;;;;;;5016563;28;20200;-83
2022/10/29 08:35:01;;;;;;;15.95;6.22;;;20.20;99.90;;;;;;5016836;28;20244;-79
2022/10/29 08:37:28;;;;;;;13.20;4.85;;;20.50;99.90;;;;;;5016175;28;20593;-83
2022/10/29 08:39:53;;;;;;;12.80;5.32;;;20.50;99.90;;;;;;5016180;28;20175;-82
2022/10/29 08:42:37;;;;;;;14.77;4.85;;;20.50;99.90;;;;;;5015969;28;20172;-85
2022/10/29 08:45:03;;;;;;;12.75;4.78;;;20.70;99.90;;;;;;5015900;28;20196;-82
2022/10/29 08:47:53;;;;;;;13.93;5.20;;;20.90;99.90;;;;;;5015267;28;20184;-81
2022/10/29 08:50:33;;;;;;;15.05;4.22;;;21.10;99.90;;;;;;5013997;28;20232;-82
2022/10/29 08:53:00;;;;;;;17.80;4.35;;;21.20;99.90;;;;;;5014435;28;20187;-79
2022/10/29 08:55:33;;;;;;;9.90;3.85;;;21.20;99.90;;;;;;5015803;28;20172;-81
2022/10/29 08:58:25;;;;;;;20.98;4.40;;;21.00;99.90;;;;;;5014227;28;20192;-83
2022/10/29 09:00:55;;;;;;;19.60;4.38;;;21.00;99.90;;;;;;5015582;28;20236;-82
2022/10/29 09:03:21;;;;;;;11.35;4.60;;;21.10;99.90;;;;;;5015309;28;20273;-81
2022/10/29 09:06:08;;;;;;;13.15;4.03;;;21.20;99.90;;;;;;5014915;28;20201;-80
2022/10/29 09:08:46;;;;;;;21.95;4.25;;;21.10;99.90;;;;;;5014532;28;20193;-83
2022/10/29 09:11:27;;;;;;;20.55;4.85;;;21.00;99.90;;;;;;5015184;28;20200;-83
2022/10/29 09:14:34;;;;;;;9.90;4.35;;;20.90;99.90;;;;;;5015026;28;20175;-79
2022/10/29 09:17:25;;;;;;;9.07;3.28;;;21.00;99.90;;;;;;5015739;28;20235;-79
2022/10/29 09:20:12;;;;;;;9.43;3.88;;;21.00;99.90;;;;;;5015355;28;20195;-88
2022/10/29 09:22:51;;;;;;;15.18;4.22;;;21.10;99.90;;;;;;5015414;28;20263;-79
2022/10/29 09:25:21;;;;;;;21.73;3.88;;;21.00;99.90;;;;;;5015121;28;20169;-79
2022/10/29 09:28:11;;;;;;;16.80;5.25;;;21.00;99.90;;;;;;5015927;28;20528;-85
2022/10/29 09:30:53;;;;;;;25.95;4.53;;;21.00;99.90;;;;;;5015708;28;20689;-88
2022/10/29 09:33:22;;;;;;;13.80;4.10;;;20.90;99.90;;;;;;5016086;28;20176;-88
2022/10/29 09:35:56;;;;;;;17.35;4.07;;;20.90;99.90;;;;;;5015651;28;20192;-87
2022/10/29 09:38:24;;;;;;;11.82;3.75;;;21.00;99.90;;;;;;5015115;28;20565;-87
2022/10/29 09:40:50;;;;;;;7.80;3.90;;;21.10;99.90;;;;;;5015480;28;20169;-87
2022/10/29 09:43:42;;;;;;;6.20;3.40;;;21.10;99.90;;;;;;5015003;28;20248;-77
2022/10/29 09:46:25;;;;;;;12.70;3.72;;;21.10;99.90;;;;;;5015032;28;20200;-77
2022/10/29 09:49:06;;;;;;;14.02;4.07;;;21.20;99.90;;;;;;5015346;28;20222;-89
2022/10/29 09:51:41;;;;;;;9.82;3.88;;;21.10;99.90;;;;;;5014933;28;20294;-88
2022/10/29 09:54:07;;;;;;;15.80;4.43;;;21.10;99.90;;;;;;5015008;28;20172;-89
2022/10/29 09:56:32;;;;;;;9.82;3.95;;;21.10;99.90;;;;;;5014538;28;20335;-77
2022/10/29 09:59:15;;;;;;;11.60;5.28;;;21.20;99.90;;;;;;5013892;28;20248;-78
2022/10/29 10:01:41;;;;;;;9.70;4.70;;;21.40;99.90;;;;;;5013848;28;20234;-77
2022/10/29 10:04:19;;;;;;;18.95;4.57;;;21.50;99.90;;;;;;5014218;28;20688;-77
2022/10/29 10:07:14;;;;;;;13.93;5.13;;;21.50;99.90;;;;;;5013952;28;20222;-87
2022/10/29 10:10:00;;;;;;;15.30;4.18;;;21.60;99.90;;;;;;5014383;28;20168;-77
2022/10/29 10:12:28;;;;;;;23.50;5.05;;;21.60;99.90;;;;;;5014368;28;20207;-88
2022/10/29 10:15:34;;;;;;;10.90;3.72;;;21.80;99.90;;;;;;5013813;28;20214;-77
2022/10/29 10:18:06;;;;;;;15.90;3.85;;;21.80;99.90;;;;;;5012462;28;20211;-78
2022/10/29 10:20:59;;;;;;;19.35;3.75;;;21.90;99.90;;;;;;5013790;28;20183;-78
2022/10/29 10:23:28;;;;;;;11.20;4.18;;;21.90;99.90;;;;;;5009889;28;20199;-78
2022/10/29 10:25:56;;;;;;;13.77;4.35;;;22.00;99.90;;;;;;5013520;28;20173;-78
2022/10/29 10:28:21;;;;;;;12.55;3.80;;;22.10;99.90;;;;;;5013550;28;20284;-77
2022/10/29 10:31:07;;;;;;;26.17;3.90;;;22.20;99.90;;;;;;5013704;28;20255;-78
2022/10/29 10:33:35;;;;;;;17.60;3.50;;;22.30;99.90;;;;;;5014209;28;20173;-79
2022/10/29 10:36:07;;;;;;;18.80;4.38;;;22.40;99.90;;;;;;5014179;28;20168;-87
2022/10/29 10:39:02;;;;;;;8.02;3.80;;;22.40;99.90;;;;;;5012276;28;20227;-78
2022/10/29 10:41:32;;;;;;;19.50;4.47;;;22.30;99.90;;;;;;4995980;28;20654;-79
2022/10/29 10:44:02;;;;;;;14.60;4.00;;;22.30;99.90;;;;;;5011736;28;20183;-78
2022/10/29 10:46:30;;;;;;;10.32;3.03;;;22.40;99.90;;;;;;5013587;28;20222;-78
2022/10/29 10:49:02;;;;;;;12.82;4.18;;;22.60;99.90;;;;;;5013342;28;20167;-78
2022/10/29 10:51:33;;;;;;;13.82;4.30;;;22.70;99.90;;;;;;5013387;28;20204;-78
2022/10/29 10:54:03;;;;;;;8.70;4.03;;;22.70;99.90;;;;;;5012637;28;20192;-78
2022/10/29 10:56:29;;;;;;;19.50;3.17;;;22.80;99.90;;;;;;5012911;28;20258;-79
2022/10/29 10:59:14;;;;;;;12.40;3.35;;;22.80;99.90;;;;;;5012899;28;20538;-79
2022/10/29 11:01:47;;;;;;;15.73;3.33;;;23.00;99.90;;;;;;5013262;28;20235;-78
2022/10/29 11:04:18;;;;;;;13.40;2.97;;;23.10;99.90;;;;;;5013060;28;20171;-79
2022/10/29 11:06:48;;;;;;;9.35;2.97;;;23.20;99.90;;;;;;5012996;28;20189;-79
2022/10/29 11:09:14;;;;;;;10.75;3.28;;;23.30;99.90;;;;;;5013348;28;20160;-78
2022/10/29 11:11:43;;;;;;;16.38;3.22;;;23.30;99.90;;;;;;5011335;28;20214;-78
2022/10/29 11:14:31;;;;;;;14.02;3.83;;;23.20;99.90;;;;;;5013301;28;20251;-79
2022/10/29 11:17:01;;;;;;;18.20;4.05;;;23.30;99.90;;;;;;5012803;28;20215;-78
2022/10/29 11:19:32;;;;;;;22.38;3.97;;;23.30;99.90;;;;;;5012804;28;20180;-78
2022/10/29 11:22:16;;;;;;;29.75;4.55;;;23.40;99.90;;;;;;5012453;28;20642;-78
2022/10/29 11:24:59;;;;;;;20.40;3.78;;;23.40;99.90;;;;;;5012767;28;20728;-81
2022/10/29 11:27:39;;;;;;;10.48;4.57;;;23.40;99.90;;;;;;5012447;28;20192;-78
2022/10/29 11:30:10;;;;;;;18.55;5.07;;;23.60;99.90;;;;;;5012262;28;20166;-80
2022/10/29 11:32:58;;;;;;;17.98;4.45;;;23.50;99.90;;;;;;5012385;28;20236;-78
2022/10/29 11:35:50;;;;;;;9.13;3.60;;;23.60;99.90;;;;;;5012050;28;20177;-81
2022/10/29 11:38:22;;;;;;;7.30;3.28;;;23.60;99.90;;;;;;5004814;28;20204;-80
2022/10/29 11:40:58;;;;;;;15.50;5.07;;;23.60;99.90;;;;;;5012938;28;20169;-78
2022/10/29 11:43:23;;;;;;;8.02;3.65;;;23.70;99.90;;;;;;5011870;28;20157;-79
2022/10/29 11:46:08;;;;;;;20.05;5.03;;;23.70;99.90;;;;;;5012481;28;20172;-78
2022/10/29 11:48:55;;;;;;;20.85;3.53;;;23.90;99.90;;;;;;5012328;28;20195;-78
2022/10/29 11:51:46;;;;;;;12.30;3.60;;;23.80;99.90;;;;;;5012460;28;20204;-78
2022/10/29 11:54:35;;;;;;;15.90;3.88;;;23.90;99.90;;;;;;5012933;28;20177;-78
2022/10/29 11:57:11;;;;;;;17.77;4.05;;;23.90;99.90;;;;;;5012406;28;20200;-78
2022/10/29 12:00:11;;;;;;;20.92;3.78;;;23.90;99.90;;;;;;5012371;28;20202;-78
2022/10/29 12:02:52;;;;;;;9.25;3.20;;;24.10;99.90;;;;;;5012420;28;20169;-78
2022/10/29 12:05:39;;;;;;;15.75;3.42;;;24.20;99.90;;;;;;5012036;28;20745;-78
2022/10/29 12:08:23;;;;;;;12.13;3.05;;;24.20;99.90;;;;;;5010755;28;20196;-78
2022/10/29 12:11:16;;;;;;;11.77;2.65;;;24.30;99.90;;;;;;5012114;28;20347;-82
2022/10/29 12:14:20;;;;;;;14.65;2.40;;;24.30;99.90;;;;;;5012087;28;20176;-78
2022/10/29 12:17:09;;;;;;;11.27;3.28;;;24.40;99.90;;;;;;5010584;28;20188;-78
2022/10/29 12:20:00;;;;;;;17.60;2.70;;;24.30;99.90;;;;;;5012204;28;20673;-78
2022/10/29 12:22:36;;;;;;;15.50;3.30;;;24.30;99.90;;;;;;5012130;28;20227;-78
2022/10/29 12:25:23;;;;;;;22.50;2.83;;;24.40;99.90;;;;;;5011956;28;20174;-78
2022/10/29 12:27:58;;;;;;;10.20;2.67;;;24.30;99.90;;;;;;5011961;28;20537;-78
2022/10/29 12:30:23;;;;;;;7.55;2.40;;;24.20;99.90;;;;;;5010891;28;20182;-79
2022/10/29 12:33:04;;;;;;;5.38;2.03;;;24.30;99.90;;;;;;5012099;28;20204;-78
2022/10/29 12:35:38;;;;;;;10.55;2.50;;;24.40;99.90;;;;;;5012049;28;20192;-78
2022/10/29 12:38:37;;;;;;;19.35;3.55;;;24.50;99.90;;;;;;5009744;28;20188;-78
2022/10/29 12:41:17;;;;;;;7.68;2.50;;;24.70;99.90;;;;;;5014454;28;20172;-78
2022/10/29 12:43:44;;;;;;;13.38;3.28;;;25.00;99.90;;;;;;5031202;28;20172;-78
2022/10/29 12:46:23;;;;;;;8.82;3.38;;;25.20;99.90;;;;;;5031333;28;20248;-78
2022/10/29 12:49:00;;;;;;;18.80;3.30;;;25.30;99.90;;;;;;5031553;28;20190;-78
2022/10/29 12:51:44;;;;;;;20.75;3.70;;;25.40;99.90;;;;;;5030991;28;20226;-78
2022/10/29 12:54:15;;;;;;;13.65;3.50;;;25.70;99.90;;;;;;5031487;28;20171;-79
2022/10/29 12:56:41;;;;;;;12.63;2.97;;;25.80;99.90;;;;;;5034663;28;20200;-78
2022/10/29 12:59:22;;;;;;;28.25;3.53;;;25.80;99.90;;;;;;5022597;28;20199;-78